sensor_id;sensor_type;location;lat;lon;timestamp;P1;durP1;ratioP1;P2;durP2;ratioP2
65035;SDS011;51603;49.300;8.880;2022-08-21T00:01:02;4.80;;;3.10;;
65035;SDS011;51603;49.300;8.880;2022-08-21T00:03:31;3.33;;;3.00;;
65035;SDS011;51603;49.300;8.880;2022-08-21T00:05:57;4.00;;;2.80;;
65035;SDS011;51603;49.300;8.880;2022-08-21T00:08:23;3.60;;;3.30;;
65035;SDS011;51603;49.300;8.880;2022-08-21T00:10:48;4.67;;;3.27;;
65035;SDS011;51603;49.300;8.880;2022-08-21T00:13:14;3.03;;;2.70;;
65035;SDS011;51603;49.300;8.880;2022-08-21T00:15:41;3.23;;;2.93;;
65035;SDS011;51603;49.300;8.880;2022-08-21T00:18:07;4.80;;;2.70;;
65035;SDS011;51603;49.300;8.880;2022-08-21T00:20:35;3.00;;;2.70;;
65035;SDS011;51603;49.300;8.880;2022-08-21T00:23:02;3.90;;;2.90;;
65035;SDS011;51603;49.300;8.880;2022-08-21T00:25:28;3.17;;;2.80;;
65035;SDS011;51603;49.300;8.880;2022-08-21T00:27:54;3.10;;;2.80;;
65035;SDS011;51603;49.300;8.880;2022-08-21T00:30:21;3.83;;;3.00;;
65035;SDS011;51603;49.300;8.880;2022-08-21T00:32:49;5.13;;;2.60;;
65035;SDS011;51603;49.300;8.880;2022-08-21T00:35:16;3.03;;;2.83;;
65035;SDS011;51603;49.300;8.880;2022-08-21T00:37:47;3.70;;;3.20;;
65035;SDS011;51603;49.300;8.880;2022-08-21T00:40:15;3.67;;;3.00;;
65035;SDS011;51603;49.300;8.880;2022-08-21T00:42:44;4.03;;;3.10;;
65035;SDS011;51603;49.300;8.880;2022-08-21T00:45:10;3.20;;;3.00;;
65035;SDS011;51603;49.300;8.880;2022-08-21T00:47:36;3.40;;;3.10;;
65035;SDS011;51603;49.300;8.880;2022-08-21T00:50:03;3.80;;;3.23;;
65035;SDS011;51603;49.300;8.880;2022-08-21T00:52:31;2.73;;;2.53;;
65035;SDS011;51603;49.300;8.880;2022-08-21T00:54:59;3.53;;;2.70;;
65035;SDS011;51603;49.300;8.880;2022-08-21T00:57:33;3.43;;;3.13;;
65035;SDS011;51603;49.300;8.880;2022-08-21T01:03:25;3.40;;;2.87;;
65035;SDS011;51603;49.300;8.880;2022-08-21T01:05:51;3.80;;;3.20;;
65035;SDS011;51603;49.300;8.880;2022-08-21T01:08:17;3.20;;;2.60;;
65035;SDS011;51603;49.300;8.880;2022-08-21T01:10:44;4.70;;;3.00;;
65035;SDS011;51603;49.300;8.880;2022-08-21T01:13:13;3.40;;;3.10;;
65035;SDS011;51603;49.300;8.880;2022-08-21T01:15:42;4.67;;;3.00;;
65035;SDS011;51603;49.300;8.880;2022-08-21T01:18:14;2.67;;;2.47;;
65035;SDS011;51603;49.300;8.880;2022-08-21T01:20:42;4.53;;;3.43;;
65035;SDS011;51603;49.300;8.880;2022-08-21T01:23:10;3.50;;;3.00;;
65035;SDS011;51603;49.300;8.880;2022-08-21T01:25:36;3.70;;;3.40;;
65035;SDS011;51603;49.300;8.880;2022-08-21T01:28:04;3.33;;;3.03;;
65035;SDS011;51603;49.300;8.880;2022-08-21T01:30:36;4.17;;;3.50;;
65035;SDS011;51603;49.300;8.880;2022-08-21T01:33:04;4.40;;;2.90;;
65035;SDS011;51603;49.300;8.880;2022-08-21T01:35:30;4.73;;;3.47;;
65035;SDS011;51603;49.300;8.880;2022-08-21T01:37:55;5.50;;;3.10;;
65035;SDS011;51603;49.300;8.880;2022-08-21T01:40:21;4.47;;;3.67;;
65035;SDS011;51603;49.300;8.880;2022-08-21T01:42:47;4.23;;;3.83;;
65035;SDS011;51603;49.300;8.880;2022-08-21T01:45:14;3.10;;;2.33;;
65035;SDS011;51603;49.300;8.880;2022-08-21T01:47:40;5.80;;;4.63;;
65035;SDS011;51603;49.300;8.880;2022-08-21T01:50:07;4.57;;;3.40;;
65035;SDS011;51603;49.300;8.880;2022-08-21T01:52:35;6.67;;;4.00;;
65035;SDS011;51603;49.300;8.880;2022-08-21T01:55:01;3.80;;;3.50;;
65035;SDS011;51603;49.300;8.880;2022-08-21T01:57:27;3.57;;;3.10;;
65035;SDS011;51603;49.300;8.880;2022-08-21T01:59:52;4.27;;;3.03;;
65035;SDS011;51603;49.300;8.880;2022-08-21T02:02:18;3.67;;;3.37;;
65035;SDS011;51603;49.300;8.880;2022-08-21T02:04:44;3.33;;;2.97;;
65035;SDS011;51603;49.300;8.880;2022-08-21T02:07:09;5.60;;;3.23;;
65035;SDS011;51603;49.300;8.880;2022-08-21T02:09:36;3.93;;;3.47;;
65035;SDS011;51603;49.300;8.880;2022-08-21T02:12:02;4.20;;;3.57;;
65035;SDS011;51603;49.300;8.880;2022-08-21T02:14:27;4.17;;;3.40;;
65035;SDS011;51603;49.300;8.880;2022-08-21T02:16:53;4.57;;;3.63;;
65035;SDS011;51603;49.300;8.880;2022-08-21T02:19:19;3.90;;;3.50;;
65035;SDS011;51603;49.300;8.880;2022-08-21T02:21:44;3.80;;;3.50;;
65035;SDS011;51603;49.300;8.880;2022-08-21T02:24:10;4.33;;;3.87;;
65035;SDS011;51603;49.300;8.880;2022-08-21T02:26:36;6.90;;;4.17;;
65035;SDS011;51603;49.300;8.880;2022-08-21T02:29:02;3.50;;;3.20;;
65035;SDS011;51603;49.300;8.880;2022-08-21T02:31:29;4.47;;;3.57;;
65035;SDS011;51603;49.300;8.880;2022-08-21T02:33:56;4.90;;;3.60;;
65035;SDS011;51603;49.300;8.880;2022-08-21T02:36:21;3.77;;;3.47;;
65035;SDS011;51603;49.300;8.880;2022-08-21T02:38:47;4.10;;;3.70;;
65035;SDS011;51603;49.300;8.880;2022-08-21T02:41:14;4.07;;;3.67;;
65035;SDS011;51603;49.300;8.880;2022-08-21T02:43:41;3.23;;;2.93;;
65035;SDS011;51603;49.300;8.880;2022-08-21T02:46:08;3.83;;;3.53;;
65035;SDS011;51603;49.300;8.880;2022-08-21T02:48:35;7.10;;;3.90;;
65035;SDS011;51603;49.300;8.880;2022-08-21T02:53:34;4.20;;;3.80;;
65035;SDS011;51603;49.300;8.880;2022-08-21T02:56:01;4.90;;;4.33;;
65035;SDS011;51603;49.300;8.880;2022-08-21T02:58:31;5.43;;;4.40;;
65035;SDS011;51603;49.300;8.880;2022-08-21T03:00:58;4.83;;;3.80;;
65035;SDS011;51603;49.300;8.880;2022-08-21T03:03:25;4.13;;;3.77;;
65035;SDS011;51603;49.300;8.880;2022-08-21T03:05:51;4.70;;;4.30;;
65035;SDS011;51603;49.300;8.880;2022-08-21T03:08:17;5.20;;;4.70;;
65035;SDS011;51603;49.300;8.880;2022-08-21T03:10:45;4.40;;;4.00;;
65035;SDS011;51603;49.300;8.880;2022-08-21T03:13:13;4.83;;;4.43;;
65035;SDS011;51603;49.300;8.880;2022-08-21T03:15:40;4.90;;;4.40;;
65035;SDS011;51603;49.300;8.880;2022-08-21T03:18:06;4.53;;;4.10;;
65035;SDS011;51603;49.300;8.880;2022-08-21T03:20:32;5.10;;;4.60;;
65035;SDS011;51603;49.300;8.880;2022-08-21T03:22:59;4.27;;;3.87;;
65035;SDS011;51603;49.300;8.880;2022-08-21T03:25:26;5.40;;;4.43;;
65035;SDS011;51603;49.300;8.880;2022-08-21T03:27:52;4.57;;;3.87;;
65035;SDS011;51603;49.300;8.880;2022-08-21T03:30:19;5.30;;;4.10;;
65035;SDS011;51603;49.300;8.880;2022-08-21T03:32:46;4.30;;;3.90;;
65035;SDS011;51603;49.300;8.880;2022-08-21T03:35:13;4.30;;;3.90;;
65035;SDS011;51603;49.300;8.880;2022-08-21T03:37:39;4.60;;;4.20;;
65035;SDS011;51603;49.300;8.880;2022-08-21T03:40:05;7.37;;;4.50;;
65035;SDS011;51603;49.300;8.880;2022-08-21T03:42:31;4.70;;;4.30;;
65035;SDS011;51603;49.300;8.880;2022-08-21T03:45:04;6.00;;;3.70;;
65035;SDS011;51603;49.300;8.880;2022-08-21T03:47:34;4.80;;;4.30;;
65035;SDS011;51603;49.300;8.880;2022-08-21T03:50:05;4.10;;;3.80;;
65035;SDS011;51603;49.300;8.880;2022-08-21T03:52:46;4.70;;;4.30;;
65035;SDS011;51603;49.300;8.880;2022-08-21T03:55:13;4.63;;;4.00;;
65035;SDS011;51603;49.300;8.880;2022-08-21T03:57:39;4.07;;;3.67;;
65035;SDS011;51603;49.300;8.880;2022-08-21T04:00:05;4.50;;;4.07;;
65035;SDS011;51603;49.300;8.880;2022-08-21T04:02:34;4.30;;;3.90;;
65035;SDS011;51603;49.300;8.880;2022-08-21T04:05:00;4.50;;;4.10;;
65035;SDS011;51603;49.300;8.880;2022-08-21T04:08:05;5.53;;;4.60;;
65035;SDS011;51603;49.300;8.880;2022-08-21T04:10:33;5.10;;;3.80;;
65035;SDS011;51603;49.300;8.880;2022-08-21T04:13:01;4.23;;;3.83;;
65035;SDS011;51603;49.300;8.880;2022-08-21T04:15:28;6.17;;;4.93;;
65035;SDS011;51603;49.300;8.880;2022-08-21T04:17:53;4.23;;;3.83;;
65035;SDS011;51603;49.300;8.880;2022-08-21T04:20:20;4.97;;;4.50;;
65035;SDS011;51603;49.300;8.880;2022-08-21T04:22:46;5.00;;;4.50;;
65035;SDS011;51603;49.300;8.880;2022-08-21T04:25:13;6.30;;;4.10;;
65035;SDS011;51603;49.300;8.880;2022-08-21T04:27:42;4.97;;;4.47;;
65035;SDS011;51603;49.300;8.880;2022-08-21T04:30:09;6.40;;;5.20;;
65035;SDS011;51603;49.300;8.880;2022-08-21T04:32:55;4.60;;;4.10;;
65035;SDS011;51603;49.300;8.880;2022-08-21T04:35:23;4.37;;;3.97;;
65035;SDS011;51603;49.300;8.880;2022-08-21T04:37:50;7.73;;;4.70;;
65035;SDS011;51603;49.300;8.880;2022-08-21T04:40:16;5.50;;;5.00;;
65035;SDS011;51603;49.300;8.880;2022-08-21T04:42:48;5.13;;;4.57;;
65035;SDS011;51603;49.300;8.880;2022-08-21T04:48:50;5.40;;;4.73;;
65035;SDS011;51603;49.300;8.880;2022-08-21T04:51:19;5.00;;;4.50;;
65035;SDS011;51603;49.300;8.880;2022-08-21T04:54:24;5.00;;;4.50;;
65035;SDS011;51603;49.300;8.880;2022-08-21T04:57:02;5.93;;;5.13;;
65035;SDS011;51603;49.300;8.880;2022-08-21T05:00:19;5.20;;;4.70;;
65035;SDS011;51603;49.300;8.880;2022-08-21T05:03:13;4.90;;;4.47;;
65035;SDS011;51603;49.300;8.880;2022-08-21T05:05:42;5.17;;;4.70;;
65035;SDS011;51603;49.300;8.880;2022-08-21T05:08:09;5.13;;;4.63;;
65035;SDS011;51603;49.300;8.880;2022-08-21T05:11:10;5.57;;;4.90;;
65035;SDS011;51603;49.300;8.880;2022-08-21T05:13:36;4.90;;;4.40;;
65035;SDS011;51603;49.300;8.880;2022-08-21T05:16:05;5.93;;;5.43;;
65035;SDS011;51603;49.300;8.880;2022-08-21T05:22:42;6.13;;;5.53;;
65035;SDS011;51603;49.300;8.880;2022-08-21T05:29:35;5.20;;;4.73;;
65035;SDS011;51603;49.300;8.880;2022-08-21T05:32:58;4.90;;;4.50;;
65035;SDS011;51603;49.300;8.880;2022-08-21T05:35:51;5.47;;;4.97;;
65035;SDS011;51603;49.300;8.880;2022-08-21T05:38:44;5.63;;;5.13;;
65035;SDS011;51603;49.300;8.880;2022-08-21T05:42:09;4.93;;;4.43;;
65035;SDS011;51603;49.300;8.880;2022-08-21T05:44:49;6.43;;;5.10;;
65035;SDS011;51603;49.300;8.880;2022-08-21T05:47:16;10.73;;;6.00;;
65035;SDS011;51603;49.300;8.880;2022-08-21T05:49:47;5.77;;;5.03;;
65035;SDS011;51603;49.300;8.880;2022-08-21T05:52:49;6.10;;;5.53;;
65035;SDS011;51603;49.300;8.880;2022-08-21T05:55:40;6.13;;;5.53;;
65035;SDS011;51603;49.300;8.880;2022-08-21T05:58:09;6.23;;;5.63;;
65035;SDS011;51603;49.300;8.880;2022-08-21T06:00:40;5.33;;;4.83;;
65035;SDS011;51603;49.300;8.880;2022-08-21T06:03:20;7.20;;;5.70;;
65035;SDS011;51603;49.300;8.880;2022-08-21T06:06:14;5.83;;;5.33;;
65035;SDS011;51603;49.300;8.880;2022-08-21T06:09:08;7.70;;;5.80;;
65035;SDS011;51603;49.300;8.880;2022-08-21T06:12:24;6.83;;;6.13;;
65035;SDS011;51603;49.300;8.880;2022-08-21T06:14:55;6.43;;;5.83;;
65035;SDS011;51603;49.300;8.880;2022-08-21T06:17:41;5.73;;;5.10;;
65035;SDS011;51603;49.300;8.880;2022-08-21T06:20:13;7.53;;;6.47;;
65035;SDS011;51603;49.300;8.880;2022-08-21T06:23:03;7.10;;;6.50;;
65035;SDS011;51603;49.300;8.880;2022-08-21T06:25:57;6.30;;;5.70;;
65035;SDS011;51603;49.300;8.880;2022-08-21T06:31:56;6.47;;;5.63;;
65035;SDS011;51603;49.300;8.880;2022-08-21T06:34:43;7.17;;;6.57;;
65035;SDS011;51603;49.300;8.880;2022-08-21T06:37:09;7.93;;;7.10;;
65035;SDS011;51603;49.300;8.880;2022-08-21T06:39:36;6.67;;;5.80;;
65035;SDS011;51603;49.300;8.880;2022-08-21T06:42:01;7.17;;;5.70;;
65035;SDS011;51603;49.300;8.880;2022-08-21T06:44:27;6.60;;;5.87;;
65035;SDS011;51603;49.300;8.880;2022-08-21T06:46:53;8.40;;;6.10;;
65035;SDS011;51603;49.300;8.880;2022-08-21T06:49:19;6.80;;;6.20;;
65035;SDS011;51603;49.300;8.880;2022-08-21T06:51:45;7.10;;;6.37;;
65035;SDS011;51603;49.300;8.880;2022-08-21T06:54:10;6.50;;;6.00;;
65035;SDS011;51603;49.300;8.880;2022-08-21T06:56:36;6.57;;;5.97;;
65035;SDS011;51603;49.300;8.880;2022-08-21T06:59:03;7.67;;;6.23;;
65035;SDS011;51603;49.300;8.880;2022-08-21T07:01:30;6.63;;;5.93;;
65035;SDS011;51603;49.300;8.880;2022-08-21T07:03:55;6.73;;;5.87;;
65035;SDS011;51603;49.300;8.880;2022-08-21T07:06:22;6.63;;;6.00;;
65035;SDS011;51603;49.300;8.880;2022-08-21T07:08:48;7.13;;;6.30;;
65035;SDS011;51603;49.300;8.880;2022-08-21T07:11:21;8.63;;;6.20;;
65035;SDS011;51603;49.300;8.880;2022-08-21T07:13:48;6.37;;;5.43;;
65035;SDS011;51603;49.300;8.880;2022-08-21T07:16:16;6.00;;;4.80;;
65035;SDS011;51603;49.300;8.880;2022-08-21T07:18:43;6.33;;;5.73;;
65035;SDS011;51603;49.300;8.880;2022-08-21T07:21:11;6.33;;;5.60;;
65035;SDS011;51603;49.300;8.880;2022-08-21T07:23:38;9.07;;;5.27;;
65035;SDS011;51603;49.300;8.880;2022-08-21T07:26:07;7.20;;;5.60;;
65035;SDS011;51603;49.300;8.880;2022-08-21T07:28:37;6.50;;;5.63;;
65035;SDS011;51603;49.300;8.880;2022-08-21T07:31:03;9.40;;;6.93;;
65035;SDS011;51603;49.300;8.880;2022-08-21T07:33:30;8.37;;;5.50;;
65035;SDS011;51603;49.300;8.880;2022-08-21T07:35:57;6.93;;;5.57;;
65035;SDS011;51603;49.300;8.880;2022-08-21T07:38:24;12.60;;;5.27;;
65035;SDS011;51603;49.300;8.880;2022-08-21T07:40:50;8.23;;;5.23;;
65035;SDS011;51603;49.300;8.880;2022-08-21T07:43:19;10.80;;;5.27;;
65035;SDS011;51603;49.300;8.880;2022-08-21T07:45:44;9.73;;;5.90;;
65035;SDS011;51603;49.300;8.880;2022-08-21T07:48:10;7.03;;;5.33;;
65035;SDS011;51603;49.300;8.880;2022-08-21T07:50:36;8.67;;;5.90;;
65035;SDS011;51603;49.300;8.880;2022-08-21T07:53:02;7.80;;;5.00;;
65035;SDS011;51603;49.300;8.880;2022-08-21T07:55:29;8.50;;;5.40;;
65035;SDS011;51603;49.300;8.880;2022-08-21T07:57:54;6.57;;;5.77;;
65035;SDS011;51603;49.300;8.880;2022-08-21T08:00:21;8.90;;;5.23;;
65035;SDS011;51603;49.300;8.880;2022-08-21T08:02:49;7.70;;;5.40;;
65035;SDS011;51603;49.300;8.880;2022-08-21T08:05:17;9.53;;;6.10;;
65035;SDS011;51603;49.300;8.880;2022-08-21T08:07:44;8.67;;;5.93;;
65035;SDS011;51603;49.300;8.880;2022-08-21T08:10:10;8.50;;;5.63;;
65035;SDS011;51603;49.300;8.880;2022-08-21T08:12:37;8.30;;;5.27;;
65035;SDS011;51603;49.300;8.880;2022-08-21T08:15:04;8.03;;;5.20;;
65035;SDS011;51603;49.300;8.880;2022-08-21T08:17:32;6.37;;;5.43;;
65035;SDS011;51603;49.300;8.880;2022-08-21T08:19:58;8.10;;;6.17;;
65035;SDS011;51603;49.300;8.880;2022-08-21T08:22:25;7.93;;;5.50;;
65035;SDS011;51603;49.300;8.880;2022-08-21T08:24:52;6.97;;;5.50;;
65035;SDS011;51603;49.300;8.880;2022-08-21T08:27:18;7.30;;;5.90;;
65035;SDS011;51603;49.300;8.880;2022-08-21T08:29:44;10.37;;;6.17;;
65035;SDS011;51603;49.300;8.880;2022-08-21T08:32:10;7.77;;;6.03;;
65035;SDS011;51603;49.300;8.880;2022-08-21T08:34:36;6.93;;;5.83;;
65035;SDS011;51603;49.300;8.880;2022-08-21T08:37:03;7.37;;;5.77;;
65035;SDS011;51603;49.300;8.880;2022-08-21T08:39:30;6.57;;;5.87;;
65035;SDS011;51603;49.300;8.880;2022-08-21T08:42:08;5.80;;;4.70;;
65035;SDS011;51603;49.300;8.880;2022-08-21T08:44:39;8.13;;;6.13;;
65035;SDS011;51603;49.300;8.880;2022-08-21T08:47:14;8.70;;;5.60;;
65035;SDS011;51603;49.300;8.880;2022-08-21T08:52:36;8.70;;;5.80;;
65035;SDS011;51603;49.300;8.880;2022-08-21T08:55:18;7.40;;;5.70;;
65035;SDS011;51603;49.300;8.880;2022-08-21T08:57:47;8.83;;;6.03;;
65035;SDS011;51603;49.300;8.880;2022-08-21T09:00:15;6.00;;;5.50;;
65035;SDS011;51603;49.300;8.880;2022-08-21T09:02:43;6.20;;;5.53;;
65035;SDS011;51603;49.300;8.880;2022-08-21T09:05:45;7.53;;;6.00;;
65035;SDS011;51603;49.300;8.880;2022-08-21T09:11:02;6.90;;;5.17;;
65035;SDS011;51603;49.300;8.880;2022-08-21T09:16:23;7.10;;;5.20;;
65035;SDS011;51603;49.300;8.880;2022-08-21T09:22:02;6.50;;;5.13;;
65035;SDS011;51603;49.300;8.880;2022-08-21T09:24:47;7.90;;;4.70;;
65035;SDS011;51603;49.300;8.880;2022-08-21T09:27:25;6.07;;;4.87;;
65035;SDS011;51603;49.300;8.880;2022-08-21T09:29:52;5.40;;;4.90;;
65035;SDS011;51603;49.300;8.880;2022-08-21T09:37:21;6.13;;;3.87;;
65035;SDS011;51603;49.300;8.880;2022-08-21T09:39:47;5.87;;;4.00;;
65035;SDS011;51603;49.300;8.880;2022-08-21T09:42:20;5.97;;;3.67;;
65035;SDS011;51603;49.300;8.880;2022-08-21T09:44:48;5.80;;;3.60;;
65035;SDS011;51603;49.300;8.880;2022-08-21T09:47:13;7.77;;;4.00;;
65035;SDS011;51603;49.300;8.880;2022-08-21T09:49:43;5.10;;;3.87;;
65035;SDS011;51603;49.300;8.880;2022-08-21T09:52:15;5.67;;;3.83;;
65035;SDS011;51603;49.300;8.880;2022-08-21T09:54:49;4.00;;;3.60;;
65035;SDS011;51603;49.300;8.880;2022-08-21T09:57:24;6.00;;;4.30;;
65035;SDS011;51603;49.300;8.880;2022-08-21T10:00:24;5.50;;;3.73;;
65035;SDS011;51603;49.300;8.880;2022-08-21T10:02:57;6.23;;;4.03;;
65035;SDS011;51603;49.300;8.880;2022-08-21T10:05:37;5.53;;;3.57;;
65035;SDS011;51603;49.300;8.880;2022-08-21T10:08:03;7.07;;;4.10;;
65035;SDS011;51603;49.300;8.880;2022-08-21T10:10:31;6.20;;;2.90;;
65035;SDS011;51603;49.300;8.880;2022-08-21T10:13:07;5.97;;;3.77;;
65035;SDS011;51603;49.300;8.880;2022-08-21T10:32:07;5.00;;;4.00;;
65035;SDS011;51603;49.300;8.880;2022-08-21T10:35:10;7.53;;;4.73;;
65035;SDS011;51603;49.300;8.880;2022-08-21T10:37:40;7.13;;;4.83;;
65035;SDS011;51603;49.300;8.880;2022-08-21T10:43:00;5.20;;;3.90;;
65035;SDS011;51603;49.300;8.880;2022-08-21T10:45:54;6.47;;;4.43;;
65035;SDS011;51603;49.300;8.880;2022-08-21T10:48:39;4.53;;;3.63;;
65035;SDS011;51603;49.300;8.880;2022-08-21T10:51:18;5.63;;;3.80;;
65035;SDS011;51603;49.300;8.880;2022-08-21T10:54:05;8.93;;;4.27;;
65035;SDS011;51603;49.300;8.880;2022-08-21T10:56:40;4.53;;;3.70;;
65035;SDS011;51603;49.300;8.880;2022-08-21T11:04:20;7.73;;;3.70;;
65035;SDS011;51603;49.300;8.880;2022-08-21T11:06:56;8.07;;;4.60;;
65035;SDS011;51603;49.300;8.880;2022-08-21T11:09:28;5.57;;;3.47;;
65035;SDS011;51603;49.300;8.880;2022-08-21T11:17:20;6.33;;;3.80;;
65035;SDS011;51603;49.300;8.880;2022-08-21T11:20:03;5.57;;;4.10;;
65035;SDS011;51603;49.300;8.880;2022-08-21T11:25:29;7.53;;;3.57;;
65035;SDS011;51603;49.300;8.880;2022-08-21T11:28:08;4.10;;;3.50;;
65035;SDS011;51603;49.300;8.880;2022-08-21T11:33:31;10.03;;;3.60;;
65035;SDS011;51603;49.300;8.880;2022-08-21T11:39:06;6.20;;;3.80;;
65035;SDS011;51603;49.300;8.880;2022-08-21T11:41:38;4.90;;;3.33;;
65035;SDS011;51603;49.300;8.880;2022-08-21T11:44:15;3.60;;;3.10;;
65035;SDS011;51603;49.300;8.880;2022-08-21T11:55:00;7.80;;;3.77;;
65035;SDS011;51603;49.300;8.880;2022-08-21T11:57:34;6.87;;;3.57;;
65035;SDS011;51603;49.300;8.880;2022-08-21T12:00:06;4.80;;;3.50;;
65035;SDS011;51603;49.300;8.880;2022-08-21T12:02:46;6.40;;;4.03;;
65035;SDS011;51603;49.300;8.880;2022-08-21T12:05:23;6.70;;;3.90;;
65035;SDS011;51603;49.300;8.880;2022-08-21T12:08:04;4.30;;;2.90;;
65035;SDS011;51603;49.300;8.880;2022-08-21T12:10:32;3.37;;;2.50;;
65035;SDS011;51603;49.300;8.880;2022-08-21T12:13:11;5.13;;;3.47;;
65035;SDS011;51603;49.300;8.880;2022-08-21T12:15:51;4.07;;;2.90;;
65035;SDS011;51603;49.300;8.880;2022-08-21T12:18:27;4.70;;;2.90;;
65035;SDS011;51603;49.300;8.880;2022-08-21T12:21:46;6.13;;;3.40;;
65035;SDS011;51603;49.300;8.880;2022-08-21T12:24:35;5.97;;;3.67;;
65035;SDS011;51603;49.300;8.880;2022-08-21T12:29:38;3.90;;;3.20;;
65035;SDS011;51603;49.300;8.880;2022-08-21T12:34:36;8.10;;;3.40;;
65035;SDS011;51603;49.300;8.880;2022-08-21T12:37:20;4.63;;;3.63;;
65035;SDS011;51603;49.300;8.880;2022-08-21T12:39:51;4.37;;;3.03;;
65035;SDS011;51603;49.300;8.880;2022-08-21T12:42:23;4.73;;;3.60;;
65035;SDS011;51603;49.300;8.880;2022-08-21T12:45:03;6.60;;;3.20;;
65035;SDS011;51603;49.300;8.880;2022-08-21T12:47:56;5.40;;;3.63;;
65035;SDS011;51603;49.300;8.880;2022-08-21T12:50:34;4.73;;;3.80;;
65035;SDS011;51603;49.300;8.880;2022-08-21T12:53:10;4.87;;;3.50;;
65035;SDS011;51603;49.300;8.880;2022-08-21T12:55:41;4.43;;;3.33;;
65035;SDS011;51603;49.300;8.880;2022-08-21T12:58:16;7.83;;;4.00;;
65035;SDS011;51603;49.300;8.880;2022-08-21T13:00:50;7.40;;;3.43;;
65035;SDS011;51603;49.300;8.880;2022-08-21T13:03:19;5.10;;;3.37;;
65035;SDS011;51603;49.300;8.880;2022-08-21T13:05:47;4.67;;;2.97;;
65035;SDS011;51603;49.300;8.880;2022-08-21T13:08:12;5.07;;;3.10;;
65035;SDS011;51603;49.300;8.880;2022-08-21T13:10:39;6.17;;;2.90;;
65035;SDS011;51603;49.300;8.880;2022-08-21T13:13:06;4.13;;;2.50;;
65035;SDS011;51603;49.300;8.880;2022-08-21T13:15:37;3.27;;;2.97;;
65035;SDS011;51603;49.300;8.880;2022-08-21T13:18:05;3.13;;;2.90;;
65035;SDS011;51603;49.300;8.880;2022-08-21T13:20:33;4.73;;;2.70;;
65035;SDS011;51603;49.300;8.880;2022-08-21T13:23:01;5.73;;;2.57;;
65035;SDS011;51603;49.300;8.880;2022-08-21T13:25:29;9.17;;;2.83;;
65035;SDS011;51603;49.300;8.880;2022-08-21T13:28:07;5.57;;;3.60;;
65035;SDS011;51603;49.300;8.880;2022-08-21T13:30:38;5.20;;;3.00;;
65035;SDS011;51603;49.300;8.880;2022-08-21T13:33:08;5.10;;;2.80;;
65035;SDS011;51603;49.300;8.880;2022-08-21T13:38:19;5.03;;;3.00;;
65035;SDS011;51603;49.300;8.880;2022-08-21T13:40:48;5.00;;;3.03;;
65035;SDS011;51603;49.300;8.880;2022-08-21T13:43:22;5.17;;;3.20;;
65035;SDS011;51603;49.300;8.880;2022-08-21T13:45:53;4.17;;;2.90;;
65035;SDS011;51603;49.300;8.880;2022-08-21T13:48:21;4.20;;;3.07;;
65035;SDS011;51603;49.300;8.880;2022-08-21T13:50:50;5.70;;;3.33;;
65035;SDS011;51603;49.300;8.880;2022-08-21T13:53:26;6.70;;;3.07;;
65035;SDS011;51603;49.300;8.880;2022-08-21T13:55:57;5.57;;;3.27;;
65035;SDS011;51603;49.300;8.880;2022-08-21T13:58:28;4.47;;;3.17;;
65035;SDS011;51603;49.300;8.880;2022-08-21T14:01:19;7.63;;;3.20;;
65035;SDS011;51603;49.300;8.880;2022-08-21T14:03:56;5.63;;;3.23;;
65035;SDS011;51603;49.300;8.880;2022-08-21T14:06:27;6.27;;;4.20;;
65035;SDS011;51603;49.300;8.880;2022-08-21T14:09:03;5.90;;;4.30;;
65035;SDS011;51603;49.300;8.880;2022-08-21T14:11:37;5.30;;;3.00;;
65035;SDS011;51603;49.300;8.880;2022-08-21T14:14:05;7.27;;;3.80;;
65035;SDS011;51603;49.300;8.880;2022-08-21T14:16:52;5.00;;;3.60;;
65035;SDS011;51603;49.300;8.880;2022-08-21T14:19:22;5.77;;;3.70;;
65035;SDS011;51603;49.300;8.880;2022-08-21T14:21:51;8.33;;;3.43;;
65035;SDS011;51603;49.300;8.880;2022-08-21T14:29:25;5.87;;;3.53;;
65035;SDS011;51603;49.300;8.880;2022-08-21T14:31:54;7.70;;;3.53;;
65035;SDS011;51603;49.300;8.880;2022-08-21T14:34:23;3.90;;;2.80;;
65035;SDS011;51603;49.300;8.880;2022-08-21T14:36:52;4.10;;;2.83;;
65035;SDS011;51603;49.300;8.880;2022-08-21T14:39:18;5.77;;;3.20;;
65035;SDS011;51603;49.300;8.880;2022-08-21T14:41:43;6.07;;;3.10;;
65035;SDS011;51603;49.300;8.880;2022-08-21T14:44:13;5.33;;;3.13;;
65035;SDS011;51603;49.300;8.880;2022-08-21T14:46:39;5.93;;;3.03;;
65035;SDS011;51603;49.300;8.880;2022-08-21T14:49:05;5.03;;;3.23;;
65035;SDS011;51603;49.300;8.880;2022-08-21T14:51:31;4.17;;;2.87;;
65035;SDS011;51603;49.300;8.880;2022-08-21T14:53:56;5.30;;;3.30;;
65035;SDS011;51603;49.300;8.880;2022-08-21T14:56:22;4.97;;;2.70;;
65035;SDS011;51603;49.300;8.880;2022-08-21T14:58:49;3.63;;;2.07;;
65035;SDS011;51603;49.300;8.880;2022-08-21T15:01:16;4.00;;;2.40;;
65035;SDS011;51603;49.300;8.880;2022-08-21T15:03:43;4.80;;;2.80;;
65035;SDS011;51603;49.300;8.880;2022-08-21T15:06:09;4.80;;;3.07;;
65035;SDS011;51603;49.300;8.880;2022-08-21T15:08:35;5.00;;;2.83;;
65035;SDS011;51603;49.300;8.880;2022-08-21T15:11:01;4.37;;;2.40;;
65035;SDS011;51603;49.300;8.880;2022-08-21T15:13:27;7.67;;;2.80;;
65035;SDS011;51603;49.300;8.880;2022-08-21T15:15:54;5.17;;;2.10;;
65035;SDS011;51603;49.300;8.880;2022-08-21T15:18:21;5.40;;;2.50;;
65035;SDS011;51603;49.300;8.880;2022-08-21T15:20:48;4.63;;;2.30;;
65035;SDS011;51603;49.300;8.880;2022-08-21T15:23:15;5.73;;;2.97;;
65035;SDS011;51603;49.300;8.880;2022-08-21T15:25:42;4.83;;;2.50;;
65035;SDS011;51603;49.300;8.880;2022-08-21T15:28:09;6.30;;;3.13;;
65035;SDS011;51603;49.300;8.880;2022-08-21T15:30:36;7.97;;;2.77;;
65035;SDS011;51603;49.300;8.880;2022-08-21T15:33:03;5.60;;;3.00;;
65035;SDS011;51603;49.300;8.880;2022-08-21T15:35:29;4.10;;;2.17;;
65035;SDS011;51603;49.300;8.880;2022-08-21T15:37:55;5.70;;;3.00;;
65035;SDS011;51603;49.300;8.880;2022-08-21T15:40:21;5.50;;;2.43;;
65035;SDS011;51603;49.300;8.880;2022-08-21T15:42:47;4.30;;;2.50;;
65035;SDS011;51603;49.300;8.880;2022-08-21T15:45:13;6.90;;;2.97;;
65035;SDS011;51603;49.300;8.880;2022-08-21T15:47:39;5.50;;;2.83;;
65035;SDS011;51603;49.300;8.880;2022-08-21T15:50:08;5.40;;;2.90;;
65035;SDS011;51603;49.300;8.880;2022-08-21T15:52:35;4.10;;;2.50;;
65035;SDS011;51603;49.300;8.880;2022-08-21T15:55:02;6.70;;;3.10;;
65035;SDS011;51603;49.300;8.880;2022-08-21T15:57:28;5.43;;;2.70;;
65035;SDS011;51603;49.300;8.880;2022-08-21T15:59:56;8.43;;;3.30;;
65035;SDS011;51603;49.300;8.880;2022-08-21T16:02:27;6.23;;;2.90;;
65035;SDS011;51603;49.300;8.880;2022-08-21T16:04:55;6.27;;;3.60;;
65035;SDS011;51603;49.300;8.880;2022-08-21T16:07:22;8.27;;;3.00;;
65035;SDS011;51603;49.300;8.880;2022-08-21T16:09:48;5.27;;;2.73;;
65035;SDS011;51603;49.300;8.880;2022-08-21T16:12:17;5.30;;;2.53;;
65035;SDS011;51603;49.300;8.880;2022-08-21T16:14:47;5.17;;;2.47;;
65035;SDS011;51603;49.300;8.880;2022-08-21T16:17:14;5.03;;;2.30;;
65035;SDS011;51603;49.300;8.880;2022-08-21T16:19:40;5.53;;;2.70;;
65035;SDS011;51603;49.300;8.880;2022-08-21T16:22:06;4.80;;;2.47;;
65035;SDS011;51603;49.300;8.880;2022-08-21T16:24:32;5.40;;;2.50;;
65035;SDS011;51603;49.300;8.880;2022-08-21T16:26:57;5.57;;;2.50;;
65035;SDS011;51603;49.300;8.880;2022-08-21T16:29:23;4.03;;;2.20;;
65035;SDS011;51603;49.300;8.880;2022-08-21T16:31:53;6.30;;;3.13;;
65035;SDS011;51603;49.300;8.880;2022-08-21T16:34:19;4.60;;;2.63;;
65035;SDS011;51603;49.300;8.880;2022-08-21T16:36:45;5.50;;;2.60;;
65035;SDS011;51603;49.300;8.880;2022-08-21T16:39:11;5.90;;;2.73;;
65035;SDS011;51603;49.300;8.880;2022-08-21T16:41:36;5.70;;;2.87;;
65035;SDS011;51603;49.300;8.880;2022-08-21T16:44:03;4.60;;;3.00;;
65035;SDS011;51603;49.300;8.880;2022-08-21T16:46:33;5.10;;;3.30;;
65035;SDS011;51603;49.300;8.880;2022-08-21T16:49:02;3.80;;;2.73;;